HLLMDTTA

Guest
Details From HLLM - MITIGA
To DTTA - CARTHAGE
Flight Number -
Tags generated
Created
Modified
Stats Distance 310 nm / 574 km
Max Altitude 32,900 ft / 10,028 m
Waypoints 5
Social Downloads 2
Likes 0
Share VATSIM

Download

Looking for another format? Having issues loading an existing format? Contact us
Advertisement - Login to hide

Notes

Basic altitude profile: - Ascent Rate: 2500ft/min - Ascent Speed: 250kts - Cruise Altitude: 34000ft - Cruise Speed: 4200kts - Descent Rate: 1500ft/min - Descent Speed: 250kts Options: - Use NATs: yes - Use PACOTS: yes - Use low airways: no - Use high airways: yes

Route

HLLM ABRAM UM727 LPD UM739 ROLEV DTTA

ID Type Via Altitude Latitude Longitude Leg Dist Tot Dist Heading (true) Name
O HLLM APT - 0 ft / 0 m 32.89508˚ 13.28242˚ - 0 nm - MITIGA
ABRAM FIX - 32,900 ft / 10,028 m 34.33333˚ 12.63778˚ 92 nm 92 nm 340° / 339° -
LPD VOR UM727 (AWY-HI) 30,600 ft / 9,327 m 35.49971˚ 12.63083˚ 70 nm 162 nm 360° / 360° LAMPEDUSA VOR-DME
ROLEV FIX UM739 (AWY-HI) 18,500 ft / 5,639 m 36.50000˚ 11.62306˚ 77 nm 239 nm 321° / 321° -
O DTTA APT - 0 ft / 0 m 36.85127˚ 10.23003˚ 70 nm 310 nm 288° / 287° CARTHAGE

Altitude Profile

Advertisement - Login to hide

Weather


0- 5 10 15 20 25 30 35+ Temperature / ° C

Clouds and Precipitation
Forecast for 2017-12-15 00:00 UTC. Updated 2 hours ago

Ground ~20,000 ft ~40,000 ft Winds

HLLM

Details ICAO HLLM (MJI)
Name MITIGA
Region Libya
Timezone Africa/Tripoli (UTC+2.0)
Stats Elevation 36 ft / 11 m (AMSL)
Location 32.895083° 13.282417°
Runways 2
Magnetic Variation 2.646° E

METAR

HLLM 150055Z 21004KT 6000 FEW025 11/05 Q1022

Decode

TAF

TAF HLLM 141700Z 1418/1518 VRB02KT 8000 FEW020 SCT070 BECMG 1503/1505 18010KT BECMG 1515/1517 25010KT = TAF HLMS 141700Z 1418/1518 VRB02KT 8000 FEW025 PROB30 TEMPO 1500/1506 3000 BR BECMG 1006/1008 18010KT

Decode

Departure Runways

ID Width Length Bearing (true) Bearing (mag) Surface Threshold Offset Overrun Length
03 148 ft / 45 m 5,966 ft / 1,819 m 29.95° 27.30° Asphalt 0 ft / 0 m 0 ft / 0 m
11 148 ft / 45 m 11,038 ft / 3,365 m 105.44° 102.79° Asphalt 0 ft / 0 m 900 ft / 274 m
21 148 ft / 45 m 5,966 ft / 1,819 m 209.95° 207.30° Asphalt 0 ft / 0 m 0 ft / 0 m
29 148 ft / 45 m 11,038 ft / 3,365 m 285.46° 282.81° Asphalt 0 ft / 0 m 1,000 ft / 305 m

DTTA

Details ICAO DTTA (TUN)
Name CARTHAGE
Region Tunisia
Timezone Africa/Tunis (UTC+1.0)
Stats Elevation 22 ft / 7 m (AMSL)
Location 36.851267° 10.230027°
Runways 2
Magnetic Variation 2.403° E

METAR

DTTA 150100Z 20003KT 9999 FEW026 09/01 Q1017 NOSIG

Decode

TAF

TAF DTTA 142300Z 1500/1524 24003KT 9999 FEW026= TAF DTMB 142300Z 1500/1524 17003KT 8000 NSC BECMG 1507/1509 23012KT

Decode

Destination Runways

ID Width Length Bearing (true) Bearing (mag) Surface Threshold Offset Overrun Length
01 148 ft / 45 m 10,502 ft / 3,201 m 12.29° 9.89° Asphalt 0 ft / 0 m 197 ft / 60 m
11 148 ft / 45 m 9,345 ft / 2,848 m 112.55° 110.15° Asphalt 0 ft / 0 m 643 ft / 196 m
19 148 ft / 45 m 10,502 ft / 3,201 m 192.29° 189.89° Asphalt 0 ft / 0 m 197 ft / 60 m
29 148 ft / 45 m 9,345 ft / 2,848 m 292.57° 290.17° Asphalt 657 ft / 200 m 197 ft / 60 m

Approach Navaids

Runway Type Ident Frequency Range Bearing (true) Bearing (mag) Slope Elevation
01 Glidescope TBL 111.10 MHz 10 nm / 19 km 10.00° 7.60° 3.00° 22 ft / 7 m (AMSL)
01 DME TBL 111.10 MHz 18 nm / 33 km - - - 22 ft / 7 m (AMSL)
19 Localiser TSI 110.30 MHz 18 nm / 33 km 192.29° 189.89° - 13 ft / 4 m (AMSL)
19 Glidescope TSI 110.30 MHz 10 nm / 19 km 192.29° 189.89° 3.00° 22 ft / 7 m (AMSL)
29 Localiser TKE 108.50 MHz 18 nm / 33 km 292.54° 290.14° - 22 ft / 7 m (AMSL)
29 Glidescope TKE 108.50 MHz 10 nm / 19 km 292.56° 290.15° 3.00° 22 ft / 7 m (AMSL)
29 DME TKE 108.50 MHz 18 nm / 33 km - - - 22 ft / 7 m (AMSL)

Popular Alternatives